Time;durP1;ratioP1;P1;durP2;ratioP2;P2;SDS_P1;SDS_P2;PMS_P1;PMS_P2;Temp;Humidity;BMP_temperature;BMP_pressure;BME280_temperature;BME280_humidity;BME280_pressure;Samples;Min_cycle;Max_cycle;Signal;HPM_P1;HPM_P2
2021/05/08 00:02:24;;;;;;;11.95;5.05;;;5.50;99.90;;;;;;5046089;28;20055;-64
2021/05/08 00:04:49;;;;;;;11.18;5.32;;;5.50;99.90;;;;;;5032800;28;20079;-66
2021/05/08 00:07:15;;;;;;;11.40;4.60;;;5.50;99.90;;;;;;5046210;28;20043;-65
2021/05/08 00:09:41;;;;;;;10.73;5.07;;;5.40;99.90;;;;;;5040750;28;20033;-65
2021/05/08 00:12:07;;;;;;;11.57;4.90;;;5.40;99.90;;;;;;5045965;28;20091;-66
2021/05/08 00:14:32;;;;;;;11.50;5.15;;;5.40;99.90;;;;;;5040580;28;20243;-66
2021/05/08 00:16:58;;;;;;;10.13;5.03;;;5.40;99.90;;;;;;5027583;28;20064;-63
2021/05/08 00:19:23;;;;;;;12.07;5.10;;;5.40;99.90;;;;;;5039185;28;20549;-65
2021/05/08 00:21:50;;;;;;;10.63;5.05;;;5.40;99.90;;;;;;5044679;28;20228;-66
2021/05/08 00:24:16;;;;;;;8.82;4.97;;;5.40;99.90;;;;;;5038313;28;20804;-66
2021/05/08 00:26:42;;;;;;;13.75;5.60;;;5.30;99.90;;;;;;5038447;28;20120;-66
2021/05/08 00:29:07;;;;;;;14.45;5.25;;;5.30;99.90;;;;;;5029570;28;20159;-65
2021/05/08 00:31:33;;;;;;;8.48;5.35;;;5.30;99.90;;;;;;5035927;28;20764;-66
2021/05/08 00:33:58;;;;;;;14.68;6.40;;;5.30;99.90;;;;;;5039957;28;20025;-64
2021/05/08 00:36:24;;;;;;;10.07;5.32;;;5.30;99.90;;;;;;5030892;28;20525;-65
2021/05/08 00:38:50;;;;;;;16.38;5.45;;;5.40;99.90;;;;;;5045541;28;20045;-63
2021/05/08 00:41:15;;;;;;;8.77;5.28;;;5.40;99.90;;;;;;5038340;28;20771;-67
2021/05/08 00:43:41;;;;;;;9.18;5.32;;;5.40;99.90;;;;;;5028473;28;20560;-64
2021/05/08 00:46:06;;;;;;;9.55;5.35;;;5.30;99.90;;;;;;5040069;28;20040;-65
2021/05/08 00:48:33;;;;;;;7.57;4.38;;;5.30;99.90;;;;;;5036082;28;20498;-65
2021/05/08 00:50:59;;;;;;;12.48;4.72;;;5.30;99.90;;;;;;5039566;28;20029;-64
2021/05/08 00:53:25;;;;;;;11.80;5.13;;;5.30;99.90;;;;;;5026428;28;20045;-65
2021/05/08 00:55:51;;;;;;;8.30;4.50;;;5.30;99.90;;;;;;5029244;28;20068;-65
2021/05/08 00:58:18;;;;;;;12.75;5.53;;;5.30;99.90;;;;;;5037484;28;20037;-66
2021/05/08 01:00:44;;;;;;;8.63;4.55;;;5.20;99.90;;;;;;5028296;28;20044;-63
2021/05/08 01:03:11;;;;;;;8.23;5.10;;;5.20;99.90;;;;;;5039073;28;20033;-65
2021/05/08 01:05:37;;;;;;;10.20;4.80;;;5.20;99.90;;;;;;5026732;28;20040;-67
2021/05/08 01:08:05;;;;;;;10.25;5.22;;;5.20;99.90;;;;;;5028886;28;20037;-66
2021/05/08 01:10:32;;;;;;;9.35;4.93;;;5.20;99.90;;;;;;5036318;28;20056;-64
2021/05/08 01:12:59;;;;;;;10.02;5.00;;;5.20;99.90;;;;;;5029389;28;20029;-65
2021/05/08 01:15:25;;;;;;;10.30;5.43;;;5.20;99.90;;;;;;5038691;28;20029;-64
2021/05/08 01:17:51;;;;;;;12.02;5.40;;;5.20;99.90;;;;;;5041186;28;20048;-64
2021/05/08 01:20:18;;;;;;;10.00;5.03;;;5.20;99.90;;;;;;5041072;28;20044;-65
2021/05/08 01:22:44;;;;;;;10.88;4.65;;;5.10;99.90;;;;;;5041311;28;20037;-64
2021/05/08 01:25:14;;;;;;;13.70;5.13;;;5.10;99.90;;;;;;5034349;28;20137;-66
2021/05/08 01:27:49;;;;;;;13.55;5.88;;;5.10;99.90;;;;;;5033533;28;20061;-66
2021/05/08 01:30:18;;;;;;;10.40;5.32;;;5.10;99.90;;;;;;5031558;28;20056;-65
2021/05/08 01:32:44;;;;;;;11.52;6.07;;;5.00;99.90;;;;;;5041396;28;20026;-65
2021/05/08 01:35:10;;;;;;;10.60;5.20;;;5.00;99.90;;;;;;5041677;28;20072;-64
2021/05/08 01:37:37;;;;;;;11.32;5.68;;;5.00;99.90;;;;;;5049787;28;20047;-65
2021/05/08 01:40:11;;;;;;;12.10;5.75;;;5.00;99.90;;;;;;5029153;28;20026;-65
2021/05/08 01:42:37;;;;;;;14.77;6.15;;;5.00;99.90;;;;;;5032360;28;20043;-65
2021/05/08 01:45:14;;;;;;;15.02;6.95;;;5.00;99.90;;;;;;5030762;28;20042;-65
2021/05/08 01:47:40;;;;;;;11.00;5.80;;;5.00;99.90;;;;;;5041232;28;20124;-64
2021/05/08 01:50:08;;;;;;;10.95;5.85;;;5.00;99.90;;;;;;5030442;28;20121;-65
2021/05/08 01:52:34;;;;;;;16.48;6.32;;;5.00;99.90;;;;;;5042975;28;20044;-64
2021/05/08 01:55:10;;;;;;;11.45;5.95;;;5.00;99.90;;;;;;5029021;28;20033;-65
2021/05/08 01:57:43;;;;;;;13.63;6.35;;;5.10;99.90;;;;;;5042806;28;20040;-66
2021/05/08 02:00:13;;;;;;;14.05;5.95;;;5.10;99.90;;;;;;5041984;28;20033;-66
2021/05/08 02:02:39;;;;;;;12.20;5.50;;;5.10;99.90;;;;;;5042531;28;20033;-64
2021/05/08 02:05:07;;;;;;;18.63;6.38;;;5.10;99.90;;;;;;5030440;28;20044;-65
2021/05/08 02:07:33;;;;;;;13.02;5.47;;;5.10;99.90;;;;;;5043354;28;20044;-66
2021/05/08 02:09:58;;;;;;;11.68;5.80;;;5.10;99.90;;;;;;5031473;28;20029;-63
2021/05/08 02:12:37;;;;;;;12.25;6.43;;;5.10;99.90;;;;;;5033438;28;20041;-66
2021/05/08 02:15:04;;;;;;;12.75;5.90;;;5.10;99.90;;;;;;5029637;28;20037;-65
2021/05/08 02:17:29;;;;;;;11.75;5.22;;;5.10;99.90;;;;;;5029560;28;20065;-64
2021/05/08 02:19:55;;;;;;;13.57;5.63;;;5.10;99.90;;;;;;5041333;28;20064;-64
2021/05/08 02:22:21;;;;;;;16.35;6.20;;;5.10;99.90;;;;;;5039064;28;20125;-66
2021/05/08 02:24:46;;;;;;;12.48;6.82;;;5.10;99.90;;;;;;5041909;28;20037;-65
2021/05/08 02:27:12;;;;;;;13.43;6.22;;;5.10;99.90;;;;;;5030631;28;20045;-66
2021/05/08 02:29:37;;;;;;;14.85;5.97;;;5.20;99.90;;;;;;5039923;28;20026;-66
2021/05/08 02:32:06;;;;;;;12.70;6.72;;;5.20;99.90;;;;;;5031175;28;20044;-65
2021/05/08 02:34:31;;;;;;;15.57;6.85;;;5.20;99.90;;;;;;5040049;28;20040;-65
2021/05/08 02:36:57;;;;;;;15.70;7.45;;;5.20;99.90;;;;;;5036476;28;20040;-65
2021/05/08 02:39:22;;;;;;;12.27;6.30;;;5.20;99.90;;;;;;5031704;28;20064;-65
2021/05/08 02:41:48;;;;;;;13.02;6.22;;;5.20;99.90;;;;;;5038899;28;20033;-65
2021/05/08 02:44:13;;;;;;;14.50;7.15;;;5.20;99.90;;;;;;5040050;28;20218;-66
2021/05/08 02:46:39;;;;;;;10.82;5.88;;;5.20;99.90;;;;;;5038685;28;20091;-66
2021/05/08 02:49:04;;;;;;;14.43;6.53;;;5.20;99.90;;;;;;5037267;28;20034;-64
2021/05/08 02:51:30;;;;;;;13.50;7.55;;;5.20;99.90;;;;;;5039951;28;20048;-66
2021/05/08 02:53:55;;;;;;;12.45;7.18;;;5.20;99.90;;;;;;5029241;28;20041;-66
2021/05/08 02:56:21;;;;;;;12.85;6.80;;;5.30;99.90;;;;;;5041998;28;20402;-65
2021/05/08 02:58:47;;;;;;;12.48;6.65;;;5.30;99.90;;;;;;5041229;28;20501;-66
2021/05/08 03:01:12;;;;;;;12.02;7.28;;;5.40;99.90;;;;;;5038898;28;20393;-66
2021/05/08 03:03:38;;;;;;;16.15;7.38;;;5.40;99.90;;;;;;5030727;28;20111;-64
2021/05/08 03:06:04;;;;;;;11.75;6.35;;;5.40;99.90;;;;;;5040352;28;20045;-65
2021/05/08 03:08:30;;;;;;;14.60;7.45;;;5.40;99.90;;;;;;5038627;28;20037;-65
2021/05/08 03:10:55;;;;;;;13.98;6.82;;;5.40;99.90;;;;;;5040842;28;20044;-65
2021/05/08 03:13:21;;;;;;;13.45;7.03;;;5.40;99.90;;;;;;5048513;28;20450;-65
2021/05/08 03:15:46;;;;;;;14.75;6.82;;;5.40;99.90;;;;;;5029133;28;20439;-66
2021/05/08 03:18:12;;;;;;;14.32;7.15;;;5.40;99.90;;;;;;5040525;28;20041;-66
2021/05/08 03:20:38;;;;;;;12.73;7.22;;;5.40;99.90;;;;;;5029602;28;20037;-65
2021/05/08 03:23:03;;;;;;;12.82;5.95;;;5.40;99.90;;;;;;5038523;28;20037;-66
2021/05/08 03:25:29;;;;;;;13.18;7.35;;;5.30;99.90;;;;;;5029027;28;20460;-69
2021/05/08 03:27:54;;;;;;;12.63;6.28;;;5.30;99.90;;;;;;5041347;28;20040;-66
2021/05/08 03:30:20;;;;;;;11.57;6.13;;;5.30;99.90;;;;;;5028290;28;20699;-64
2021/05/08 03:32:46;;;;;;;13.07;7.30;;;5.30;99.90;;;;;;5031586;28;20036;-64
2021/05/08 03:35:11;;;;;;;14.63;6.35;;;5.40;99.90;;;;;;5038885;28;20033;-64
2021/05/08 03:37:37;;;;;;;14.43;7.20;;;5.50;99.90;;;;;;5047346;28;20511;-64
2021/05/08 03:40:04;;;;;;;14.50;7.00;;;5.50;99.90;;;;;;5039074;28;20038;-64
2021/05/08 03:42:29;;;;;;;13.07;6.25;;;5.50;99.90;;;;;;5040668;28;20390;-65
2021/05/08 03:44:55;;;;;;;12.85;7.25;;;5.60;99.90;;;;;;5038551;28;20076;-63
2021/05/08 03:47:21;;;;;;;13.63;6.30;;;5.60;99.90;;;;;;5041132;28;20037;-66
2021/05/08 03:49:46;;;;;;;13.88;6.60;;;5.60;99.90;;;;;;5037318;28;20051;-66
2021/05/08 03:52:12;;;;;;;12.68;6.10;;;5.60;99.90;;;;;;5040344;28;20029;-64
2021/05/08 03:54:37;;;;;;;15.27;7.00;;;5.60;99.90;;;;;;5029654;28;20037;-64
2021/05/08 03:57:05;;;;;;;16.92;6.88;;;5.60;99.90;;;;;;5039154;28;20422;-64
2021/05/08 03:59:30;;;;;;;13.18;7.00;;;5.60;99.90;;;;;;5030071;28;20037;-63
2021/05/08 04:01:56;;;;;;;18.08;7.50;;;5.60;99.90;;;;;;5037630;28;20033;-63
2021/05/08 04:04:21;;;;;;;11.60;6.88;;;5.60;99.90;;;;;;5041177;28;20098;-63
2021/05/08 04:06:47;;;;;;;15.00;6.82;;;5.60;99.90;;;;;;5028121;28;20091;-63
2021/05/08 04:09:12;;;;;;;17.17;6.35;;;5.70;99.90;;;;;;5040041;28;20472;-64
2021/05/08 04:11:38;;;;;;;10.55;6.20;;;5.70;99.90;;;;;;5033913;28;20498;-62
2021/05/08 04:14:04;;;;;;;16.00;6.55;;;5.80;99.90;;;;;;5055868;28;20083;-65
2021/05/08 04:16:33;;;;;;;12.18;6.00;;;5.80;99.90;;;;;;5040125;28;20045;-65
2021/05/08 04:19:01;;;;;;;19.77;7.07;;;5.80;99.90;;;;;;5037841;28;20035;-63
2021/05/08 04:21:26;;;;;;;11.23;6.57;;;5.80;99.90;;;;;;5030960;28;20478;-65
2021/05/08 04:23:52;;;;;;;11.05;6.10;;;5.80;99.90;;;;;;5037792;28;20044;-64
2021/05/08 04:26:18;;;;;;;14.73;5.70;;;5.90;99.90;;;;;;5028118;28;20040;-66
2021/05/08 04:28:43;;;;;;;24.67;5.65;;;5.90;99.90;;;;;;5040247;28;20032;-65
2021/05/08 04:31:09;;;;;;;11.05;6.20;;;5.90;99.90;;;;;;5027828;28;20039;-65
2021/05/08 04:33:34;;;;;;;10.02;5.43;;;6.00;99.90;;;;;;5029537;28;20029;-65
2021/05/08 04:36:00;;;;;;;8.70;5.53;;;6.00;99.90;;;;;;5039122;28;20096;-66
2021/05/08 04:38:26;;;;;;;10.52;4.88;;;6.10;99.90;;;;;;5031023;28;20072;-64
2021/05/08 04:40:55;;;;;;;11.98;5.65;;;6.20;99.90;;;;;;5033930;28;20033;-64
2021/05/08 04:43:21;;;;;;;10.48;4.78;;;6.20;99.90;;;;;;5036589;28;20033;-64
2021/05/08 04:45:47;;;;;;;9.57;4.82;;;6.30;99.90;;;;;;5033780;28;20029;-64
2021/05/08 04:48:21;;;;;;;8.05;4.70;;;6.40;99.90;;;;;;5035781;28;20036;-64
2021/05/08 04:50:47;;;;;;;9.85;5.00;;;6.50;99.90;;;;;;5027847;28;20026;-64
2021/05/08 04:53:12;;;;;;;11.88;5.50;;;6.50;99.90;;;;;;5029800;28;20044;-64
2021/05/08 04:55:38;;;;;;;7.95;4.40;;;6.60;99.90;;;;;;5038314;28;20401;-64
2021/05/08 04:58:07;;;;;;;5.95;3.85;;;6.60;99.90;;;;;;5038255;28;20045;-65
2021/05/08 05:00:33;;;;;;;11.70;4.63;;;6.60;99.90;;;;;;5038544;28;20059;-64
2021/05/08 05:02:59;;;;;;;10.63;4.68;;;6.60;99.90;;;;;;5038659;28;20029;-64
2021/05/08 05:05:24;;;;;;;9.82;4.18;;;6.60;99.90;;;;;;5039372;28;20036;-64
2021/05/08 05:07:50;;;;;;;8.35;3.70;;;6.70;99.90;;;;;;5036852;28;20090;-64
2021/05/08 05:10:15;;;;;;;12.20;4.68;;;6.70;99.90;;;;;;5030083;28;20055;-64
2021/05/08 05:12:41;;;;;;;8.13;4.03;;;6.90;99.90;;;;;;5043123;28;20139;-64
2021/05/08 05:15:08;;;;;;;8.85;3.85;;;6.90;99.90;;;;;;5039349;28;20045;-65
2021/05/08 05:17:34;;;;;;;7.07;3.60;;;7.10;99.90;;;;;;5038036;28;20128;-64
2021/05/08 05:19:59;;;;;;;10.57;3.55;;;7.30;99.90;;;;;;5038781;28;20176;-64
2021/05/08 05:22:25;;;;;;;6.85;3.42;;;7.40;99.90;;;;;;5038710;28;20040;-64
2021/05/08 05:24:52;;;;;;;10.95;3.85;;;7.60;99.90;;;;;;5027967;28;20048;-64
2021/05/08 05:27:17;;;;;;;9.88;3.72;;;7.70;99.90;;;;;;5039869;28;20110;-65
2021/05/08 05:29:43;;;;;;;7.65;3.60;;;7.80;99.90;;;;;;5036840;28;20068;-64
2021/05/08 05:32:09;;;;;;;8.05;3.38;;;7.80;99.90;;;;;;5039428;28;20040;-65
2021/05/08 05:34:34;;;;;;;6.93;3.78;;;7.80;99.90;;;;;;5037578;28;20029;-64
2021/05/08 05:37:00;;;;;;;11.32;3.75;;;8.00;99.90;;;;;;5032789;28;20187;-64
2021/05/08 05:39:25;;;;;;;5.95;3.15;;;8.10;99.90;;;;;;5037230;28;20301;-65
2021/05/08 05:41:51;;;;;;;7.30;3.65;;;8.30;99.90;;;;;;5036948;28;20037;-65
2021/05/08 05:44:17;;;;;;;10.27;4.05;;;8.60;99.90;;;;;;5035740;28;20071;-64
2021/05/08 05:46:42;;;;;;;7.82;3.65;;;8.80;99.90;;;;;;5039032;28;20178;-65
2021/05/08 05:49:08;;;;;;;6.65;3.92;;;9.00;99.90;;;;;;5040183;28;20110;-68
2021/05/08 05:51:34;;;;;;;4.22;2.88;;;9.30;99.90;;;;;;5037600;28;20036;-65
2021/05/08 05:53:59;;;;;;;8.50;3.40;;;9.40;99.90;;;;;;5038983;28;20566;-65
2021/05/08 05:56:28;;;;;;;7.32;3.22;;;9.60;99.90;;;;;;5035996;28;20543;-65
2021/05/08 05:58:54;;;;;;;10.80;4.40;;;9.70;99.90;;;;;;5039811;28;20037;-65
2021/05/08 06:01:21;;;;;;;7.20;3.95;;;9.70;99.90;;;;;;5038559;28;20025;-65
2021/05/08 06:03:46;;;;;;;6.40;4.07;;;9.50;99.90;;;;;;5019882;28;20031;-65
2021/05/08 06:06:12;;;;;;;8.57;3.67;;;9.40;99.90;;;;;;5036377;28;20400;-65
2021/05/08 06:08:38;;;;;;;7.20;3.60;;;9.30;99.90;;;;;;5017214;28;20043;-64
2021/05/08 06:11:04;;;;;;;5.97;3.58;;;9.20;99.90;;;;;;5039107;28;20112;-64
2021/05/08 06:13:32;;;;;;;6.38;3.25;;;9.00;99.90;;;;;;5038425;28;20064;-65
2021/05/08 06:16:06;;;;;;;10.93;3.72;;;8.90;99.90;;;;;;5036772;28;20473;-64
2021/05/08 06:18:33;;;;;;;7.35;3.30;;;9.00;99.90;;;;;;5023136;28;20033;-65
2021/05/08 06:20:59;;;;;;;6.82;3.42;;;9.00;99.90;;;;;;5037767;28;20055;-65
2021/05/08 06:23:24;;;;;;;8.35;4.00;;;8.90;99.90;;;;;;5036391;28;20049;-64
2021/05/08 06:25:50;;;;;;;11.70;3.78;;;8.80;99.90;;;;;;5038150;28;20036;-65
2021/05/08 06:28:17;;;;;;;11.02;3.47;;;8.80;99.90;;;;;;5034623;28;20045;-64
2021/05/08 06:30:43;;;;;;;9.43;3.50;;;8.90;99.90;;;;;;5032435;28;20507;-64
2021/05/08 06:33:08;;;;;;;6.40;3.25;;;8.80;99.90;;;;;;5033368;28;20056;-64
2021/05/08 06:35:34;;;;;;;9.93;3.25;;;9.00;99.90;;;;;;5036847;28;20120;-65
2021/05/08 06:38:00;;;;;;;7.50;3.50;;;8.90;99.90;;;;;;5047827;28;20531;-65
2021/05/08 06:40:26;;;;;;;6.97;3.33;;;9.00;99.90;;;;;;5037068;28;20087;-65
2021/05/08 06:42:51;;;;;;;9.85;3.65;;;9.00;99.90;;;;;;5040432;28;20490;-65
2021/05/08 06:45:17;;;;;;;9.73;3.50;;;9.10;99.90;;;;;;5036863;28;20060;-65
2021/05/08 06:47:42;;;;;;;6.80;2.92;;;9.10;99.90;;;;;;5037445;28;20079;-65
2021/05/08 06:50:09;;;;;;;8.45;3.85;;;9.20;99.90;;;;;;5039353;28;20425;-65
2021/05/08 06:52:34;;;;;;;6.65;3.67;;;9.20;99.90;;;;;;5040824;28;20033;-65
2021/05/08 06:55:00;;;;;;;7.15;3.40;;;9.20;99.90;;;;;;5042947;28;20094;-65
2021/05/08 06:57:25;;;;;;;5.55;3.40;;;9.30;99.90;;;;;;5037873;28;20104;-65
2021/05/08 06:59:51;;;;;;;6.25;3.35;;;9.40;99.90;;;;;;5042975;28;20672;-65
2021/05/08 07:02:16;;;;;;;8.25;4.57;;;9.50;99.90;;;;;;5043930;28;20606;-65
2021/05/08 07:04:42;;;;;;;7.57;3.78;;;9.70;99.90;;;;;;5041987;28;20555;-65
2021/05/08 07:07:07;;;;;;;9.48;3.95;;;9.80;99.90;;;;;;5026087;28;20482;-65
2021/05/08 07:09:33;;;;;;;9.60;3.50;;;9.80;99.90;;;;;;5043178;28;20045;-65
2021/05/08 07:11:58;;;;;;;6.43;3.80;;;9.90;99.90;;;;;;5038201;28;20060;-65
2021/05/08 07:14:24;;;;;;;6.60;3.40;;;10.00;99.90;;;;;;5038949;28;20021;-65
2021/05/08 07:16:49;;;;;;;7.22;3.13;;;10.10;99.90;;;;;;5040597;28;20029;-65
2021/05/08 07:19:15;;;;;;;5.93;3.20;;;10.10;99.90;;;;;;5040826;28;20029;-65
2021/05/08 07:21:41;;;;;;;7.25;4.10;;;10.10;99.90;;;;;;5041753;28;20592;-65
2021/05/08 07:24:07;;;;;;;8.63;3.65;;;10.20;99.90;;;;;;5039939;28;20912;-64
2021/05/08 07:26:33;;;;;;;7.53;3.60;;;10.20;99.90;;;;;;5042531;28;20031;-65
2021/05/08 07:29:00;;;;;;;8.13;3.42;;;10.30;99.90;;;;;;5036865;28;20033;-65
2021/05/08 07:31:26;;;;;;;6.75;3.22;;;10.30;99.90;;;;;;5023324;28;20112;-64
2021/05/08 07:33:52;;;;;;;9.73;3.78;;;10.40;99.90;;;;;;5042186;28;20036;-64
2021/05/08 07:36:19;;;;;;;8.50;3.60;;;10.50;99.90;;;;;;5019412;28;20049;-69
2021/05/08 07:38:44;;;;;;;6.05;3.10;;;10.40;99.90;;;;;;5022359;28;20067;-66
2021/05/08 07:41:10;;;;;;;7.35;3.00;;;10.50;99.90;;;;;;5024856;28;20033;-64
2021/05/08 07:43:36;;;;;;;7.70;3.60;;;10.50;99.90;;;;;;5039164;28;20124;-67
2021/05/08 07:46:01;;;;;;;5.78;2.90;;;10.60;99.90;;;;;;5038118;28;20048;-66
2021/05/08 07:48:28;;;;;;;6.75;3.63;;;10.60;99.90;;;;;;5043330;28;20398;-65
2021/05/08 07:50:53;;;;;;;6.53;3.13;;;10.50;99.90;;;;;;5035965;28;20064;-63
2021/05/08 07:53:19;;;;;;;9.18;2.83;;;10.60;99.90;;;;;;5026589;28;20040;-66
2021/05/08 07:55:44;;;;;;;6.07;3.05;;;10.60;99.90;;;;;;5039234;28;20030;-65
2021/05/08 07:58:10;;;;;;;9.90;3.67;;;10.70;99.90;;;;;;5025679;28;20033;-64
2021/05/08 08:00:36;;;;;;;6.57;2.85;;;10.80;99.90;;;;;;5039197;28;20036;-66
2021/05/08 08:03:02;;;;;;;11.05;3.35;;;10.80;99.90;;;;;;5025041;28;20057;-64
2021/05/08 08:05:28;;;;;;;6.10;2.40;;;10.80;99.90;;;;;;5043211;28;20112;-66
2021/05/08 08:07:54;;;;;;;9.43;3.05;;;10.90;99.90;;;;;;5042704;28;20108;-68
2021/05/08 08:10:20;;;;;;;6.35;2.60;;;11.00;99.90;;;;;;5024169;28;20041;-67
2021/05/08 08:12:46;;;;;;;5.00;2.60;;;11.00;99.90;;;;;;5044422;28;20464;-67
2021/05/08 08:15:13;;;;;;;6.97;2.92;;;11.00;99.90;;;;;;5023753;28;20078;-66
2021/05/08 08:17:39;;;;;;;7.35;3.33;;;11.10;99.90;;;;;;5043669;28;20494;-67
2021/05/08 08:20:08;;;;;;;4.57;2.53;;;11.10;99.90;;;;;;5044391;28;20036;-63
2021/05/08 08:22:33;;;;;;;8.85;3.67;;;11.10;99.90;;;;;;5041460;28;20086;-63
2021/05/08 08:24:59;;;;;;;7.05;3.08;;;11.20;99.90;;;;;;5025799;28;20041;-68
2021/05/08 08:27:25;;;;;;;7.05;2.75;;;11.20;99.90;;;;;;5047436;28;20041;-64
2021/05/08 08:29:52;;;;;;;7.35;2.85;;;11.30;99.90;;;;;;5029246;28;20104;-63
2021/05/08 08:32:17;;;;;;;5.72;2.92;;;11.40;99.90;;;;;;5022877;28;20123;-65
2021/05/08 08:34:43;;;;;;;8.68;2.80;;;11.50;99.90;;;;;;5026957;28;20593;-64
2021/05/08 08:37:09;;;;;;;5.75;2.58;;;11.50;99.90;;;;;;5029597;28;20043;-66
2021/05/08 08:39:35;;;;;;;8.63;2.55;;;11.60;99.90;;;;;;5023418;28;20026;-63
2021/05/08 08:42:03;;;;;;;7.55;2.60;;;11.70;99.90;;;;;;5048515;28;20131;-64
2021/05/08 08:44:28;;;;;;;11.82;3.47;;;11.90;99.90;;;;;;5046926;28;20053;-63
2021/05/08 08:46:54;;;;;;;8.45;2.92;;;11.80;99.90;;;;;;5041046;28;20099;-63
2021/05/08 08:49:21;;;;;;;6.13;3.03;;;12.00;99.90;;;;;;5042635;28;20171;-64
2021/05/08 08:51:47;;;;;;;5.75;2.40;;;12.10;99.90;;;;;;5035119;28;20136;-64
2021/05/08 08:54:13;;;;;;;5.60;2.58;;;12.20;99.90;;;;;;5046481;28;20040;-63
2021/05/08 08:56:43;;;;;;;11.48;2.72;;;12.30;99.90;;;;;;5031928;28;20037;-63
2021/05/08 09:01:43;;;;;;;3.85;2.55;;;12.30;99.90;;;;;;5042327;28;20129;-62
2021/05/08 09:04:10;;;;;;;8.52;2.90;;;12.40;99.80;;;;;;5038387;28;20120;-64
2021/05/08 09:06:38;;;;;;;8.20;2.50;;;12.40;99.90;;;;;;5031905;28;20596;-66
2021/05/08 09:09:04;;;;;;;9.52;2.28;;;12.50;99.90;;;;;;5038545;28;20044;-62
2021/05/08 09:11:29;;;;;;;6.55;2.35;;;12.70;98.50;;;;;;5032246;28;20037;-63
2021/05/08 09:14:15;;;;;;;7.28;2.30;;;12.70;98.30;;;;;;5057871;28;20612;-63
2021/05/08 09:17:06;;;;;;;6.18;2.47;;;13.00;97.20;;;;;;5045406;28;20033;-65
2021/05/08 09:19:34;;;;;;;5.22;2.35;;;13.20;96.50;;;;;;5039096;28;20777;-65
2021/05/08 09:22:24;;;;;;;6.57;2.42;;;13.30;96.90;;;;;;5047638;28;20033;-66
2021/05/08 09:25:16;;;;;;;6.47;1.92;;;13.30;96.80;;;;;;5031467;28;20034;-64
2021/05/08 09:27:51;;;;;;;6.15;2.13;;;13.30;95.80;;;;;;5034207;28;20029;-64
2021/05/08 09:30:21;;;;;;;6.32;2.60;;;13.40;97.00;;;;;;5027385;28;20044;-63
2021/05/08 09:33:05;;;;;;;6.68;2.10;;;13.30;96.00;;;;;;5039238;28;20033;-65
2021/05/08 09:35:34;;;;;;;8.25;1.88;;;13.20;96.80;;;;;;5040489;28;20091;-64
2021/05/08 09:38:16;;;;;;;7.10;1.70;;;13.10;97.70;;;;;;5045715;28;20029;-65
2021/05/08 09:40:46;;;;;;;3.53;2.03;;;13.10;98.80;;;;;;5039542;28;20036;-65
2021/05/08 09:43:21;;;;;;;7.15;2.35;;;13.00;99.90;;;;;;5040342;28;20052;-65
2021/05/08 09:45:50;;;;;;;3.83;1.73;;;12.80;99.90;;;;;;5027572;28;20029;-65
2021/05/08 09:48:20;;;;;;;4.75;1.90;;;12.60;99.90;;;;;;5026900;28;20409;-64
2021/05/08 09:50:46;;;;;;;5.40;2.28;;;12.50;99.90;;;;;;5037792;28;20643;-65
2021/05/08 09:53:23;;;;;;;6.03;2.38;;;12.60;99.90;;;;;;5038842;28;20037;-65
2021/05/08 09:55:49;;;;;;;3.35;1.75;;;12.50;99.90;;;;;;5038038;28;20043;-65
2021/05/08 09:58:19;;;;;;;3.38;1.85;;;12.60;99.90;;;;;;5027261;28;20033;-64
2021/05/08 10:00:44;;;;;;;3.75;1.73;;;12.60;99.90;;;;;;5027480;28;20021;-64
2021/05/08 10:03:13;;;;;;;3.22;1.75;;;12.60;99.90;;;;;;5027694;28;20071;-65
2021/05/08 10:05:45;;;;;;;5.72;1.77;;;12.40;99.90;;;;;;5038263;28;20051;-65
2021/05/08 10:08:11;;;;;;;4.40;1.90;;;12.40;99.90;;;;;;5036911;28;20095;-64
2021/05/08 10:10:37;;;;;;;3.95;1.50;;;12.20;99.90;;;;;;5038160;28;20037;-64
2021/05/08 10:13:08;;;;;;;5.80;1.65;;;12.10;99.90;;;;;;5037255;28;20076;-64
2021/05/08 10:15:35;;;;;;;5.15;1.98;;;12.00;99.90;;;;;;5038436;28;20040;-64
2021/05/08 10:18:04;;;;;;;4.72;2.15;;;11.90;99.90;;;;;;5035444;28;20136;-64
2021/05/08 10:20:30;;;;;;;8.13;1.63;;;11.90;99.90;;;;;;5039782;28;20040;-64
2021/05/08 10:23:06;;;;;;;3.67;2.10;;;11.90;99.90;;;;;;5038604;28;20033;-65
2021/05/08 10:25:32;;;;;;;5.95;2.25;;;11.90;99.90;;;;;;5038576;28;20378;-65
2021/05/08 10:27:58;;;;;;;3.78;1.83;;;11.90;99.90;;;;;;5033220;28;20064;-64
2021/05/08 10:30:38;;;;;;;4.18;1.60;;;12.00;99.90;;;;;;5035570;28;20048;-64
2021/05/08 10:33:15;;;;;;;3.50;1.65;;;11.90;99.90;;;;;;5038265;28;20557;-64
2021/05/08 10:35:51;;;;;;;2.33;1.40;;;11.70;99.90;;;;;;5038210;28;20538;-64
2021/05/08 10:38:26;;;;;;;4.95;1.98;;;11.60;99.90;;;;;;5043254;28;20517;-64
2021/05/08 10:41:09;;;;;;;5.40;1.70;;;11.60;99.90;;;;;;5040878;28;20155;-71
2021/05/08 10:43:53;;;;;;;5.28;2.10;;;11.50;99.90;;;;;;5042575;28;20033;-62
2021/05/08 10:46:21;;;;;;;4.90;1.80;;;11.40;99.90;;;;;;5040711;28;20040;-63
2021/05/08 10:49:06;;;;;;;7.00;2.22;;;11.30;99.90;;;;;;5040109;28;20044;-63
2021/05/08 10:51:57;;;;;;;8.15;2.00;;;11.40;99.90;;;;;;5034439;28;20037;-65
2021/05/08 10:54:42;;;;;;;6.35;2.05;;;11.30;99.90;;;;;;5025273;28;20029;-65
2021/05/08 10:57:15;;;;;;;6.30;2.15;;;11.10;99.90;;;;;;5032436;28;20052;-69
2021/05/08 11:00:00;;;;;;;4.50;2.13;;;11.00;99.90;;;;;;5018134;28;20045;-64
2021/05/08 11:02:41;;;;;;;4.05;2.03;;;10.90;99.90;;;;;;5036067;28;20114;-64
2021/05/08 11:05:26;;;;;;;3.88;2.22;;;10.80;99.90;;;;;;5032750;28;20042;-64
2021/05/08 11:07:52;;;;;;;5.57;1.95;;;10.60;99.90;;;;;;5029436;28;20041;-63
2021/05/08 11:10:32;;;;;;;3.35;1.80;;;10.50;99.90;;;;;;5044800;28;20049;-64
2021/05/08 11:13:12;;;;;;;6.28;1.95;;;10.50;99.90;;;;;;5045918;28;20037;-62
2021/05/08 11:16:03;;;;;;;4.22;2.08;;;10.40;99.90;;;;;;5043519;28;20112;-64
2021/05/08 11:18:32;;;;;;;3.33;1.60;;;10.30;99.90;;;;;;5040590;28;20043;-64
2021/05/08 11:20:59;;;;;;;5.03;2.20;;;10.30;99.90;;;;;;5043707;28;20044;-65
2021/05/08 11:23:25;;;;;;;3.92;1.50;;;10.20;99.90;;;;;;5043501;28;20029;-65
2021/05/08 11:25:51;;;;;;;3.58;1.80;;;10.20;99.90;;;;;;5044463;28;20048;-64
2021/05/08 11:28:16;;;;;;;7.75;1.48;;;10.20;99.90;;;;;;5043449;28;20037;-65
2021/05/08 11:30:52;;;;;;;3.00;1.70;;;10.10;99.90;;;;;;5044301;28;20170;-66
2021/05/08 11:33:21;;;;;;;9.43;2.00;;;10.20;99.90;;;;;;5044806;28;20036;-66
2021/05/08 11:36:02;;;;;;;3.13;1.70;;;10.10;99.90;;;;;;5038069;28;20044;-67
2021/05/08 11:38:28;;;;;;;5.40;2.25;;;9.90;99.90;;;;;;5043524;28;20039;-66
2021/05/08 11:40:53;;;;;;;4.18;2.17;;;9.90;99.90;;;;;;5044322;28;20036;-67
2021/05/08 11:43:28;;;;;;;8.20;2.25;;;9.80;99.90;;;;;;5041444;28;20072;-66
2021/05/08 11:45:54;;;;;;;4.63;2.17;;;9.90;99.90;;;;;;5043411;28;20041;-67
2021/05/08 11:48:20;;;;;;;3.65;2.33;;;9.80;99.90;;;;;;5044170;28;20521;-66
2021/05/08 11:50:48;;;;;;;5.88;2.03;;;9.80;99.90;;;;;;5040241;28;20055;-67
2021/05/08 11:53:18;;;;;;;5.82;2.03;;;9.90;99.90;;;;;;5043292;28;20025;-67
2021/05/08 11:55:47;;;;;;;3.30;2.03;;;9.90;99.90;;;;;;5040789;28;20040;-65
2021/05/08 11:58:25;;;;;;;3.17;1.70;;;9.90;99.90;;;;;;5037456;28;20037;-64
2021/05/08 12:00:51;;;;;;;5.85;2.47;;;9.90;99.90;;;;;;5043378;28;20036;-67
2021/05/08 12:03:18;;;;;;;4.93;2.38;;;9.90;99.90;;;;;;5038237;28;20056;-68
2021/05/08 12:05:48;;;;;;;6.93;2.25;;;9.90;99.90;;;;;;5042539;28;20060;-67
2021/05/08 12:08:15;;;;;;;;;;;9.90;99.90;;;;;;5039926;28;20686;-68
2021/05/08 12:10:42;;;;;;;3.53;1.77;;;9.90;99.90;;;;;;5024088;28;19953;-65
2021/05/08 12:13:08;;;;;;;4.55;1.88;;;9.90;99.90;;;;;;5042384;28;20506;-68
2021/05/08 12:15:36;;;;;;;3.55;1.70;;;9.90;99.90;;;;;;5040211;28;20796;-67
2021/05/08 12:18:04;;;;;;;4.35;1.95;;;9.90;99.90;;;;;;5018719;28;20112;-65
2021/05/08 12:20:37;;;;;;;3.92;1.63;;;9.90;99.90;;;;;;5019020;28;20507;-65
2021/05/08 12:23:09;;;;;;;7.03;2.20;;;9.90;99.90;;;;;;5040115;28;20131;-66
2021/05/08 12:25:35;;;;;;;4.97;2.35;;;9.80;99.90;;;;;;5040051;28;20033;-68
2021/05/08 12:28:17;;;;;;;5.00;1.85;;;9.80;99.90;;;;;;5038589;28;20037;-64
2021/05/08 12:30:48;;;;;;;3.13;1.90;;;9.80;99.90;;;;;;5038504;28;20041;-68
2021/05/08 12:33:24;;;;;;;;;;;9.90;99.90;;;;;;5040575;28;20086;-67
2021/05/08 12:35:52;;;;;;;2.78;1.83;;;9.90;99.90;;;;;;5034855;28;19967;-68
2021/05/08 12:38:17;;;;;;;4.55;1.80;;;10.00;99.90;;;;;;5041149;28;20029;-68
2021/05/08 12:40:46;;;;;;;9.75;2.97;;;10.00;99.90;;;;;;5041438;28;20068;-66
2021/05/08 12:43:29;;;;;;;4.93;2.35;;;10.00;99.90;;;;;;5039728;28;20109;-66
2021/05/08 12:46:06;;;;;;;3.72;1.88;;;10.00;99.90;;;;;;5041666;28;20041;-68
2021/05/08 12:48:54;;;;;;;4.03;1.85;;;10.10;99.90;;;;;;5040009;28;20029;-66
2021/05/08 12:51:34;;;;;;;3.50;1.90;;;10.10;99.90;;;;;;5035574;28;20718;-67
2021/05/08 12:54:30;;;;;;;2.88;1.75;;;10.20;99.90;;;;;;5038118;28;20437;-66
2021/05/08 12:57:09;;;;;;;6.68;2.33;;;10.20;99.90;;;;;;5041621;28;20171;-66
2021/05/08 12:59:35;;;;;;;6.93;1.95;;;10.20;99.90;;;;;;5041482;28;20398;-65